Time;durP1;ratioP1;P1;durP2;ratioP2;P2;SDS_P1;SDS_P2;PMS_P1;PMS_P2;Temp;Humidity;BMP_temperature;BMP_pressure;BME280_temperature;BME280_humidity;BME280_pressure;Samples;Min_cycle;Max_cycle;Signal;HPM_P1;HPM_P2
2022/06/10 00:00:24;;;;;;;26.73;4.50;;;15.40;34.60;;;;;;4990069;28;20467;-69
2022/06/10 00:02:51;;;;;;;26.70;3.80;;;15.40;34.60;;;;;;4990968;28;20487;-69
2022/06/10 00:05:20;;;;;;;24.87;4.07;;;15.40;34.60;;;;;;4990966;28;20463;-69
2022/06/10 00:07:47;;;;;;;26.00;4.17;;;15.40;34.70;;;;;;4991124;28;20472;-69
2022/06/10 00:10:18;;;;;;;28.57;4.57;;;15.40;34.90;;;;;;4990406;28;20460;-69
2022/06/10 00:12:46;;;;;;;26.33;4.10;;;15.40;34.90;;;;;;4990817;28;20499;-69
2022/06/10 00:15:13;;;;;;;28.13;4.07;;;15.30;34.90;;;;;;4991031;28;20833;-69
2022/06/10 00:17:40;;;;;;;27.43;4.13;;;15.30;35.00;;;;;;4991475;28;20456;-69
2022/06/10 00:20:09;;;;;;;28.03;4.40;;;15.30;35.10;;;;;;4990282;28;20467;-69
2022/06/10 00:22:36;;;;;;;28.33;4.80;;;15.30;35.10;;;;;;4991111;28;20473;-69
2022/06/10 00:25:04;;;;;;;30.13;5.00;;;15.30;35.50;;;;;;4990715;28;20477;-70
2022/06/10 00:27:31;;;;;;;28.20;4.47;;;15.30;35.40;;;;;;4990765;28;20547;-69
2022/06/10 00:29:59;;;;;;;27.30;4.17;;;15.20;35.50;;;;;;4990122;28;20836;-69
2022/06/10 00:32:26;;;;;;;27.90;4.30;;;15.20;35.70;;;;;;4989597;28;20476;-69
2022/06/10 00:34:53;;;;;;;29.90;4.60;;;15.20;35.60;;;;;;4991493;28;20461;-69
2022/06/10 00:37:20;;;;;;;30.30;5.47;;;15.20;36.20;;;;;;4990209;28;20471;-69
2022/06/10 00:39:46;;;;;;;26.83;4.33;;;15.20;35.70;;;;;;4989742;28;20476;-69
2022/06/10 00:42:13;;;;;;;27.90;4.37;;;15.20;35.70;;;;;;4990039;28;20449;-69
2022/06/10 00:44:42;;;;;;;28.93;4.10;;;15.20;35.90;;;;;;4990700;28;20453;-69
2022/06/10 00:47:18;;;;;;;27.30;4.40;;;15.10;35.90;;;;;;4990885;28;20492;-69
2022/06/10 00:49:50;;;;;;;27.77;4.50;;;15.10;35.90;;;;;;4989208;28;20895;-69
2022/06/10 00:52:23;;;;;;;30.13;5.17;;;15.10;36.10;;;;;;4989758;28;20469;-69
2022/06/10 00:54:52;;;;;;;31.63;5.17;;;15.10;36.20;;;;;;4989732;28;20465;-69
2022/06/10 00:57:22;;;;;;;29.13;5.10;;;15.10;36.40;;;;;;4989167;28;21238;-69
2022/06/10 00:59:54;;;;;;;28.50;5.17;;;15.10;36.50;;;;;;4989465;28;20471;-70
2022/06/10 01:02:25;;;;;;;30.20;5.00;;;15.00;36.60;;;;;;4969702;28;20470;-69
2022/06/10 01:04:55;;;;;;;30.90;5.60;;;15.00;37.20;;;;;;4970783;28;20450;-69
2022/06/10 01:07:30;;;;;;;27.63;4.87;;;15.00;36.70;;;;;;4970615;28;20462;-69
2022/06/10 01:09:58;;;;;;;31.33;4.50;;;15.00;36.70;;;;;;4970766;28;20465;-69
2022/06/10 01:12:53;;;;;;;28.33;4.60;;;14.90;36.80;;;;;;4987632;28;20481;-69
2022/06/10 01:15:30;;;;;;;28.20;4.60;;;14.90;37.10;;;;;;4990068;28;20472;-69
2022/06/10 01:18:22;;;;;;;27.73;4.60;;;14.80;37.10;;;;;;4989884;28;20440;-69
2022/06/10 01:21:08;;;;;;;29.37;5.67;;;14.80;37.30;;;;;;4989152;28;20448;-69
2022/06/10 01:24:10;;;;;;;30.07;4.80;;;14.80;36.90;;;;;;4989064;28;20476;-69
2022/06/10 01:30:12;;;;;;;31.53;4.57;;;14.70;37.50;;;;;;4947727;29;20451;-69
2022/06/10 01:32:50;;;;;;;28.90;5.53;;;14.60;37.60;;;;;;4985089;28;20485;-69
2022/06/10 01:35:26;;;;;;;29.23;4.60;;;14.60;37.60;;;;;;4988483;28;20988;-69
2022/06/10 01:38:01;;;;;;;28.87;4.80;;;14.60;37.80;;;;;;4989745;28;20631;-69
2022/06/10 01:40:36;;;;;;;30.37;6.13;;;14.60;37.90;;;;;;4989278;28;20474;-69
2022/06/10 01:43:08;;;;;;;30.17;6.30;;;14.50;37.80;;;;;;4989570;28;20484;-69
2022/06/10 01:45:40;;;;;;;33.40;4.70;;;14.50;37.90;;;;;;4988534;28;20478;-69
2022/06/10 01:48:17;;;;;;;28.43;4.20;;;14.50;38.00;;;;;;4989806;28;20503;-68
2022/06/10 01:50:49;;;;;;;35.00;5.80;;;14.50;38.00;;;;;;4988644;28;20460;-69
2022/06/10 01:53:24;;;;;;;31.47;5.03;;;14.40;37.80;;;;;;4988888;28;20527;-69
2022/06/10 01:55:55;;;;;;;30.57;5.40;;;14.40;37.90;;;;;;4988871;28;20465;-69
2022/06/10 01:58:28;;;;;;;31.73;5.60;;;14.40;37.90;;;;;;4988284;28;20453;-69
2022/06/10 02:01:01;;;;;;;30.33;5.70;;;14.40;38.60;;;;;;4969090;28;21021;-69
2022/06/10 02:03:34;;;;;;;34.17;5.40;;;14.40;38.10;;;;;;4969589;28;20540;-69
2022/06/10 02:06:06;;;;;;;32.40;6.20;;;14.30;38.00;;;;;;4969650;28;20442;-69
2022/06/10 02:08:38;;;;;;;28.80;5.50;;;14.40;38.10;;;;;;4969171;28;20826;-69
2022/06/10 02:11:07;;;;;;;29.47;4.90;;;14.30;38.10;;;;;;4968629;28;20480;-69
2022/06/10 02:13:40;;;;;;;29.50;5.50;;;14.30;38.30;;;;;;4968549;28;20490;-69
2022/06/10 02:16:11;;;;;;;29.13;5.73;;;14.30;38.40;;;;;;4969788;28;20469;-69
2022/06/10 02:18:44;;;;;;;28.60;5.17;;;14.30;38.10;;;;;;4969477;28;20966;-69
2022/06/10 02:21:15;;;;;;;30.17;5.60;;;14.30;38.10;;;;;;4986776;28;21147;-69
2022/06/10 02:23:45;;;;;;;32.43;5.83;;;14.30;38.10;;;;;;4988886;28;20483;-69
2022/06/10 02:26:14;;;;;;;33.73;6.00;;;14.30;38.30;;;;;;4988730;28;20465;-69
2022/06/10 02:28:45;;;;;;;32.40;5.97;;;14.30;38.30;;;;;;4989450;28;20539;-69
2022/06/10 02:31:16;;;;;;;30.37;5.27;;;14.30;38.50;;;;;;4987016;28;20479;-69
2022/06/10 02:33:45;;;;;;;30.53;6.27;;;14.30;38.10;;;;;;4988488;28;20489;-69
2022/06/10 02:36:17;;;;;;;31.40;5.70;;;14.30;38.80;;;;;;4988572;28;20463;-69
2022/06/10 02:38:55;;;;;;;29.93;5.90;;;14.30;38.40;;;;;;4988679;28;20467;-69
2022/06/10 02:41:31;;;;;;;30.50;5.97;;;14.30;38.40;;;;;;4987542;28;20460;-69
2022/06/10 02:44:08;;;;;;;30.60;5.90;;;14.30;38.40;;;;;;4988261;28;20476;-69
2022/06/10 02:46:39;;;;;;;31.20;5.40;;;14.30;38.40;;;;;;4988954;28;20444;-69
2022/06/10 02:49:10;;;;;;;31.47;6.10;;;14.30;38.70;;;;;;4987864;28;20465;-69
2022/06/10 02:51:37;;;;;;;31.93;5.37;;;14.30;38.60;;;;;;4987525;28;20467;-69
2022/06/10 02:54:07;;;;;;;34.87;6.00;;;14.30;38.40;;;;;;4987963;28;20863;-69
2022/06/10 02:56:34;;;;;;;32.90;5.90;;;14.30;38.30;;;;;;4988113;28;20464;-69
2022/06/10 03:02:00;;;;;;;29.60;6.00;;;14.20;38.10;;;;;;4986778;28;20555;-69
2022/06/10 03:04:39;;;;;;;32.53;6.23;;;14.20;38.20;;;;;;4988386;28;20476;-68
2022/06/10 03:07:21;;;;;;;33.23;6.70;;;14.20;38.40;;;;;;4988350;28;20441;-69
2022/06/10 03:10:01;;;;;;;33.03;5.53;;;14.10;38.60;;;;;;4988070;28;20461;-69
2022/06/10 03:12:36;;;;;;;28.70;5.50;;;14.10;38.50;;;;;;4987702;28;20611;-69
2022/06/10 03:15:15;;;;;;;29.47;6.07;;;14.10;38.60;;;;;;4988602;28;20448;-69
2022/06/10 03:18:01;;;;;;;28.83;5.20;;;14.10;38.50;;;;;;4988050;28;20452;-69
2022/06/10 03:20:39;;;;;;;29.60;5.13;;;14.10;38.60;;;;;;4988612;28;20472;-68
2022/06/10 03:23:13;;;;;;;33.00;6.30;;;14.10;38.70;;;;;;4986132;28;20491;-69
2022/06/10 03:25:44;;;;;;;36.93;6.20;;;14.10;38.60;;;;;;4990548;28;20465;-69
2022/06/10 03:28:16;;;;;;;29.60;5.30;;;14.10;38.40;;;;;;4991887;28;20467;-69
2022/06/10 03:30:52;;;;;;;32.50;6.27;;;14.00;38.40;;;;;;4990857;28;20469;-69
2022/06/10 03:33:26;;;;;;;28.80;6.10;;;14.00;38.60;;;;;;4991146;28;20484;-69
2022/06/10 03:36:01;;;;;;;32.47;6.63;;;14.00;38.50;;;;;;4991382;28;20448;-69
2022/06/10 03:38:28;;;;;;;30.60;5.80;;;14.00;38.50;;;;;;4991590;28;20464;-68
2022/06/10 03:40:57;;;;;;;30.97;6.80;;;13.90;38.70;;;;;;4991377;28;20468;-69
2022/06/10 03:43:25;;;;;;;34.60;5.63;;;14.00;38.70;;;;;;4991025;28;20484;-69
2022/06/10 03:45:57;;;;;;;30.83;6.33;;;13.90;38.80;;;;;;4990834;28;20472;-69
2022/06/10 03:48:26;;;;;;;32.70;6.60;;;13.90;38.70;;;;;;4991918;28;20472;-69
2022/06/10 03:50:56;;;;;;;33.00;7.20;;;14.00;38.50;;;;;;4991186;28;20479;-69
2022/06/10 03:53:25;;;;;;;33.13;5.90;;;13.90;38.50;;;;;;4989716;28;20480;-69
2022/06/10 03:55:51;;;;;;;29.93;6.30;;;13.90;38.50;;;;;;4989586;28;20495;-69
2022/06/10 03:58:19;;;;;;;29.83;6.80;;;13.90;39.20;;;;;;4990184;28;21084;-69
2022/06/10 04:00:46;;;;;;;30.53;6.73;;;13.90;38.60;;;;;;4990432;28;20472;-69
2022/06/10 04:03:13;;;;;;;31.97;6.47;;;13.90;38.50;;;;;;4990980;28;20989;-70
2022/06/10 04:05:40;;;;;;;32.27;6.50;;;13.90;38.70;;;;;;4989640;28;20559;-69
2022/06/10 04:08:09;;;;;;;30.80;6.17;;;13.80;38.60;;;;;;4990238;28;20479;-68
2022/06/10 04:10:36;;;;;;;35.00;5.97;;;13.80;38.70;;;;;;4991562;28;20457;-60
2022/06/10 04:13:03;;;;;;;30.70;6.00;;;13.80;38.80;;;;;;4991899;28;20499;-60
2022/06/10 04:15:32;;;;;;;32.93;6.63;;;13.80;38.90;;;;;;4989438;28;20472;-60
2022/06/10 04:17:58;;;;;;;30.47;5.93;;;13.80;39.00;;;;;;4989813;28;20555;-60
2022/06/10 04:20:29;;;;;;;29.10;5.63;;;13.80;38.90;;;;;;4990006;28;20541;-61
2022/06/10 04:22:56;;;;;;;29.60;5.93;;;13.80;39.10;;;;;;4989568;28;20501;-60
2022/06/10 04:25:25;;;;;;;31.20;6.63;;;13.90;39.10;;;;;;4987357;28;20492;-60
2022/06/10 04:27:52;;;;;;;30.93;6.20;;;13.90;39.10;;;;;;4991176;28;20463;-60
2022/06/10 04:30:25;;;;;;;29.90;5.90;;;14.00;39.10;;;;;;4992000;28;20467;-61
2022/06/10 04:32:52;;;;;;;32.53;5.80;;;14.70;40.20;;;;;;5009443;28;20482;-61
2022/06/10 04:35:19;;;;;;;33.37;5.70;;;15.70;37.40;;;;;;5010098;28;20513;-61
2022/06/10 04:37:46;;;;;;;31.50;4.03;;;16.80;34.50;;;;;;4990540;28;20464;-61
2022/06/10 04:40:15;;;;;;;33.90;4.60;;;17.60;31.00;;;;;;4991256;28;20486;-60
2022/06/10 04:42:44;;;;;;;30.10;4.50;;;18.40;28.40;;;;;;4990933;28;20476;-61
2022/06/10 04:45:11;;;;;;;32.10;4.53;;;19.10;25.60;;;;;;4990374;28;20453;-61
2022/06/10 04:47:38;;;;;;;30.90;4.80;;;19.80;23.30;;;;;;4990062;28;20941;-60
2022/06/10 04:50:07;;;;;;;29.33;3.60;;;20.40;20.80;;;;;;4990661;28;20479;-60
2022/06/10 04:52:35;;;;;;;30.20;3.50;;;20.90;19.70;;;;;;4989746;28;20485;-61
2022/06/10 04:55:02;;;;;;;30.20;3.30;;;21.10;18.00;;;;;;4989553;28;20489;-60
2022/06/10 04:57:29;;;;;;;31.93;3.90;;;21.00;18.40;;;;;;4988872;28;20465;-60
2022/06/10 04:59:58;;;;;;;32.30;3.50;;;21.60;18.00;;;;;;4990093;28;20464;-60
2022/06/10 05:02:25;;;;;;;29.67;3.93;;;22.20;16.20;;;;;;4989525;28;20824;-60
2022/06/10 05:04:52;;;;;;;34.03;3.50;;;22.90;15.20;;;;;;4989804;28;20464;-60
2022/06/10 05:07:18;;;;;;;28.47;3.27;;;23.50;14.00;;;;;;4988734;28;20471;-60
2022/06/10 05:09:45;;;;;;;28.30;3.30;;;24.10;12.90;;;;;;4990403;28;20861;-60
2022/06/10 05:12:12;;;;;;;29.77;3.10;;;24.70;11.80;;;;;;4989741;28;20544;-60
2022/06/10 05:14:39;;;;;;;30.30;3.53;;;25.40;10.60;;;;;;4989526;28;20491;-61
2022/06/10 05:17:07;;;;;;;30.10;3.73;;;25.90;9.60;;;;;;4987679;28;20835;-60
2022/06/10 05:19:34;;;;;;;29.50;2.80;;;26.50;9.00;;;;;;4970047;28;20640;-61
2022/06/10 05:22:01;;;;;;;28.77;3.50;;;26.90;7.40;;;;;;4980365;28;20547;-60
2022/06/10 05:24:28;;;;;;;28.93;3.27;;;27.60;6.70;;;;;;4987157;28;20504;-61
2022/06/10 05:26:55;;;;;;;28.10;3.20;;;28.10;5.90;;;;;;4989024;28;20465;-61
2022/06/10 05:29:22;;;;;;;28.10;3.00;;;28.70;5.00;;;;;;4988508;28;20471;-61
2022/06/10 05:31:48;;;;;;;28.50;2.83;;;29.30;4.30;;;;;;4989257;28;20475;-61
2022/06/10 05:37:01;;;;;;;26.30;2.77;;;30.50;2.30;;;;;;4988898;28;20912;-61
2022/06/10 05:39:28;;;;;;;25.90;2.50;;;31.20;1.60;;;;;;4987857;28;20460;-61
2022/06/10 05:42:08;;;;;;;27.90;3.30;;;31.60;1.00;;;;;;4988325;28;20630;-61
2022/06/10 05:44:37;;;;;;;26.53;3.10;;;32.00;1.00;;;;;;4988873;28;20466;-61
2022/06/10 05:47:06;;;;;;;26.50;2.80;;;32.50;1.00;;;;;;4989056;28;20919;-61
2022/06/10 05:49:35;;;;;;;26.43;3.07;;;32.90;1.00;;;;;;4987693;28;20856;-61
2022/06/10 05:52:02;;;;;;;25.77;2.80;;;33.30;1.00;;;;;;4988816;28;20465;-61
2022/06/10 05:54:29;;;;;;;26.00;2.50;;;33.80;1.00;;;;;;4988888;28;20488;-62
2022/06/10 05:56:56;;;;;;;26.80;2.43;;;34.20;1.00;;;;;;4989002;28;20465;-61
2022/06/10 05:59:23;;;;;;;26.93;2.47;;;34.70;1.00;;;;;;4988487;28;20470;-61
2022/06/10 06:01:50;;;;;;;25.40;2.50;;;35.10;1.00;;;;;;4988512;28;20503;-62
2022/06/10 06:04:17;;;;;;;25.63;2.53;;;35.60;1.00;;;;;;4988961;28;20484;-61
2022/06/10 06:06:45;;;;;;;24.77;2.33;;;36.10;1.00;;;;;;4988500;28;20461;-61
2022/06/10 06:09:15;;;;;;;24.40;2.40;;;36.60;1.00;;;;;;4987806;28;20836;-61
2022/06/10 06:11:43;;;;;;;25.93;2.30;;;37.10;1.00;;;;;;4988784;28;20475;-62
2022/06/10 06:14:09;;;;;;;25.70;2.50;;;37.60;1.00;;;;;;4989139;28;20481;-61
2022/06/10 06:16:37;;;;;;;26.87;2.53;;;38.20;1.00;;;;;;4988713;28;20475;-61
2022/06/10 06:19:04;;;;;;;24.50;2.30;;;38.70;1.00;;;;;;4988737;28;20488;-61
2022/06/10 06:21:31;;;;;;;26.57;2.40;;;39.10;1.00;;;;;;4988160;28;20829;-62
2022/06/10 06:23:59;;;;;;;24.40;2.20;;;39.50;1.00;;;;;;4988163;28;21004;-61
2022/06/10 06:26:26;;;;;;;23.37;2.20;;;40.00;1.00;;;;;;4989005;28;20460;-61
2022/06/10 06:28:53;;;;;;;23.97;2.37;;;40.50;1.00;;;;;;4988112;28;20457;-62
2022/06/10 06:31:22;;;;;;;24.73;2.40;;;40.80;1.00;;;;;;4987003;28;20476;-62
2022/06/10 06:33:48;;;;;;;23.60;2.47;;;40.90;1.00;;;;;;4988726;28;20492;-61
2022/06/10 06:36:18;;;;;;;24.90;2.30;;;41.20;1.00;;;;;;4988364;28;20872;-61
2022/06/10 06:38:45;;;;;;;23.80;2.57;;;41.80;1.00;;;;;;4988831;28;20467;-61
2022/06/10 06:41:14;;;;;;;23.30;2.30;;;42.10;1.00;;;;;;4987090;28;20465;-62
2022/06/10 06:43:41;;;;;;;22.90;1.97;;;42.40;1.00;;;;;;4988670;28;20480;-62
2022/06/10 06:46:09;;;;;;;23.20;2.53;;;42.80;1.00;;;;;;4988302;28;20467;-62
2022/06/10 06:48:36;;;;;;;23.47;2.10;;;43.20;1.00;;;;;;4987927;28;20471;-61
2022/06/10 06:51:03;;;;;;;23.80;2.30;;;43.60;1.00;;;;;;4987795;28;20556;-62
2022/06/10 06:53:31;;;;;;;23.63;2.07;;;43.90;1.00;;;;;;4988039;28;20485;-61
2022/06/10 06:55:58;;;;;;;23.20;2.40;;;44.10;1.00;;;;;;4988006;28;20465;-62
2022/06/10 06:58:26;;;;;;;22.00;2.10;;;44.30;1.00;;;;;;4989047;28;20453;-62
2022/06/10 07:00:52;;;;;;;22.30;2.37;;;44.50;1.00;;;;;;4986372;28;20457;-62
2022/06/10 07:03:20;;;;;;;22.27;2.10;;;44.90;1.00;;;;;;4987489;28;20484;-61
2022/06/10 07:05:47;;;;;;;24.07;2.83;;;45.30;1.00;;;;;;4988301;28;20515;-62
2022/06/10 07:08:14;;;;;;;23.07;2.57;;;45.50;1.00;;;;;;4988200;28;20460;-62
2022/06/10 07:10:41;;;;;;;22.40;2.40;;;45.80;1.00;;;;;;4987321;28;20501;-62
2022/06/10 07:13:08;;;;;;;23.47;2.47;;;46.10;1.00;;;;;;4988405;28;20480;-61
2022/06/10 07:15:37;;;;;;;24.40;2.33;;;46.40;1.00;;;;;;4988209;28;20488;-62
2022/06/10 07:18:05;;;;;;;23.10;2.70;;;46.50;1.00;;;;;;4988401;28;20835;-62
2022/06/10 07:20:35;;;;;;;21.60;2.70;;;46.70;1.00;;;;;;4987217;28;20464;-62
2022/06/10 07:23:02;;;;;;;23.17;2.37;;;47.20;1.00;;;;;;4988096;28;20830;-63
2022/06/10 07:25:30;;;;;;;23.07;2.50;;;47.70;1.00;;;;;;4988839;28;20464;-62
2022/06/10 07:27:58;;;;;;;21.90;2.27;;;48.20;1.00;;;;;;4988267;28;20464;-62
2022/06/10 07:30:28;;;;;;;21.67;2.33;;;48.30;1.00;;;;;;4988204;28;20468;-62
2022/06/10 07:32:57;;;;;;;21.47;2.33;;;48.30;1.00;;;;;;4987180;28;20997;-62
2022/06/10 07:35:24;;;;;;;23.17;2.50;;;48.70;1.00;;;;;;4988788;28;21049;-62
2022/06/10 07:37:52;;;;;;;21.90;2.60;;;49.00;1.00;;;;;;4988111;28;20969;-62
2022/06/10 07:43:05;;;;;;;22.30;2.60;;;49.50;1.00;;;;;;4986915;28;20475;-62
2022/06/10 07:45:33;;;;;;;23.20;2.17;;;49.50;1.00;;;;;;4988234;28;20461;-63
2022/06/10 07:48:01;;;;;;;21.83;2.20;;;49.70;1.00;;;;;;4987820;28;20461;-62
2022/06/10 07:50:29;;;;;;;21.30;2.20;;;50.10;1.00;;;;;;4986440;28;20496;-62
2022/06/10 07:52:56;;;;;;;22.57;2.47;;;50.30;1.00;;;;;;4987787;28;20823;-62
2022/06/10 07:55:24;;;;;;;20.70;2.23;;;50.90;1.00;;;;;;4988176;28;20856;-62
2022/06/10 07:57:51;;;;;;;21.50;2.00;;;51.30;1.00;;;;;;4987778;28;20465;-63
2022/06/10 08:00:18;;;;;;;23.77;2.60;;;51.60;1.00;;;;;;4986690;28;20969;-63
2022/06/10 08:02:44;;;;;;;20.30;2.20;;;52.10;1.00;;;;;;4987095;28;20484;-62
2022/06/10 08:05:16;;;;;;;20.80;2.57;;;52.30;1.00;;;;;;4988344;28;20852;-62
2022/06/10 08:07:43;;;;;;;21.50;2.07;;;52.40;1.00;;;;;;4987769;28;20452;-62
2022/06/10 08:10:19;;;;;;;20.47;2.17;;;52.90;1.00;;;;;;4987740;28;20459;-62
2022/06/10 08:12:46;;;;;;;21.03;2.10;;;52.30;1.00;;;;;;4990634;28;20551;-62
2022/06/10 08:15:13;;;;;;;23.67;2.43;;;49.10;1.00;;;;;;4991440;28;21004;-70
2022/06/10 08:17:40;;;;;;;22.07;2.33;;;46.30;1.00;;;;;;4990853;28;20460;-70
2022/06/10 08:20:09;;;;;;;25.07;3.23;;;44.30;1.00;;;;;;4990208;28;20465;-70
2022/06/10 08:22:36;;;;;;;24.00;2.17;;;41.40;1.00;;;;;;4990912;28;20477;-71
2022/06/10 08:25:06;;;;;;;23.87;3.70;;;39.40;1.00;;;;;;4990380;28;20469;-70
2022/06/10 08:27:33;;;;;;;27.90;2.83;;;38.30;1.00;;;;;;4991388;28;20471;-70
2022/06/10 08:29:59;;;;;;;23.73;3.00;;;38.00;1.00;;;;;;4989669;28;20464;-70
2022/06/10 08:32:26;;;;;;;24.70;2.67;;;36.70;1.00;;;;;;4988974;28;20487;-70
2022/06/10 08:34:53;;;;;;;24.30;2.40;;;35.30;1.00;;;;;;4989918;28;20491;-70
2022/06/10 08:37:20;;;;;;;27.90;3.10;;;34.10;1.00;;;;;;4991053;28;20472;-70
2022/06/10 08:39:48;;;;;;;26.83;2.63;;;33.30;1.00;;;;;;4990756;28;20467;-70
2022/06/10 08:42:27;;;;;;;24.80;2.40;;;35.80;1.00;;;;;;4988471;28;20468;-70
2022/06/10 08:44:56;;;;;;;26.00;2.70;;;37.70;1.00;;;;;;4990872;28;20451;-70
2022/06/10 08:47:44;;;;;;;25.93;2.67;;;40.70;1.00;;;;;;4990070;28;20468;-70
2022/06/10 08:50:29;;;;;;;25.17;2.73;;;43.80;1.00;;;;;;4990400;28;20461;-70
2022/06/10 08:53:10;;;;;;;23.20;2.60;;;46.00;1.00;;;;;;4989071;28;20488;-70
2022/06/10 08:55:52;;;;;;;22.37;2.07;;;46.40;1.00;;;;;;4989513;28;20480;-70
2022/06/10 08:58:26;;;;;;;24.40;3.07;;;44.40;1.00;;;;;;4990445;28;20456;-70
2022/06/10 09:00:56;;;;;;;23.63;2.60;;;41.40;1.00;;;;;;4989334;28;20472;-70
2022/06/10 09:03:31;;;;;;;25.17;3.10;;;39.20;1.00;;;;;;4988813;28;21016;-70
2022/06/10 09:06:02;;;;;;;26.73;2.90;;;40.70;1.00;;;;;;4989873;28;20440;-70
2022/06/10 09:08:33;;;;;;;24.90;2.30;;;43.20;1.00;;;;;;4990707;28;20456;-70
2022/06/10 09:11:12;;;;;;;23.13;2.20;;;45.40;1.00;;;;;;4990242;28;20545;-70
2022/06/10 09:13:41;;;;;;;23.07;2.40;;;47.10;1.00;;;;;;4989097;28;21171;-70
2022/06/10 09:16:17;;;;;;;21.47;1.87;;;48.40;1.00;;;;;;4990309;28;20473;-70
2022/06/10 09:18:54;;;;;;;22.20;2.20;;;49.50;1.00;;;;;;4989913;28;20441;-70
2022/06/10 09:21:28;;;;;;;22.33;2.20;;;49.30;1.00;;;;;;4991058;28;20460;-70
2022/06/10 09:23:59;;;;;;;23.03;2.70;;;48.00;1.00;;;;;;4988325;28;20495;-71
2022/06/10 09:26:44;;;;;;;27.23;3.07;;;46.30;1.00;;;;;;4989433;28;21122;-71
2022/06/10 09:29:12;;;;;;;23.30;2.40;;;44.50;1.00;;;;;;4990326;28;20468;-71
2022/06/10 09:31:40;;;;;;;23.30;2.07;;;42.80;1.00;;;;;;4989189;28;20881;-71
2022/06/10 09:34:21;;;;;;;25.40;3.73;;;41.50;1.00;;;;;;4988087;28;20896;-71
2022/06/10 09:36:56;;;;;;;23.27;2.40;;;40.00;1.00;;;;;;4990306;28;20846;-71
2022/06/10 09:42:32;;;;;;;24.23;3.57;;;37.60;1.00;;;;;;4989017;28;20417;-71
2022/06/10 09:45:07;;;;;;;26.27;2.40;;;36.70;1.00;;;;;;4988462;28;20476;-70
2022/06/10 09:47:47;;;;;;;26.10;2.87;;;35.80;1.00;;;;;;4989973;28;20437;-71
2022/06/10 09:50:22;;;;;;;27.47;3.30;;;34.80;1.00;;;;;;4989860;28;20481;-71
2022/06/10 09:53:04;;;;;;;27.50;2.60;;;33.60;1.00;;;;;;4989437;28;20830;-71
2022/06/10 09:55:46;;;;;;;25.53;2.43;;;32.60;1.00;;;;;;4988503;28;20508;-70
2022/06/10 09:58:35;;;;;;;25.70;2.70;;;31.90;1.00;;;;;;4989271;28;20441;-70
2022/06/10 10:01:10;;;;;;;25.17;2.80;;;31.00;1.00;;;;;;4988590;28;20473;-71
2022/06/10 10:03:59;;;;;;;27.27;3.00;;;30.50;1.00;;;;;;4989599;28;20814;-70
2022/06/10 10:06:35;;;;;;;29.13;3.60;;;29.90;1.00;;;;;;4987468;28;20566;-70
2022/06/10 10:09:12;;;;;;;25.50;2.67;;;29.20;1.00;;;;;;4989332;28;20544;-70
2022/06/10 10:11:46;;;;;;;26.67;2.40;;;28.80;1.00;;;;;;4989538;28;20448;-70
2022/06/10 10:14:25;;;;;;;27.37;3.03;;;28.50;1.00;;;;;;4988788;28;20476;-70
2022/06/10 10:17:07;;;;;;;26.77;3.20;;;28.20;1.00;;;;;;4987861;28;20649;-70
2022/06/10 10:19:52;;;;;;;27.67;3.43;;;27.80;1.00;;;;;;4988982;28;20460;-70
2022/06/10 10:22:45;;;;;;;27.83;3.50;;;27.40;1.00;;;;;;4988501;28;20460;-70
2022/06/10 10:25:15;;;;;;;29.00;3.37;;;27.20;1.00;;;;;;4987485;28;20805;-70
2022/06/10 10:27:44;;;;;;;26.33;2.97;;;27.00;1.00;;;;;;4988227;28;20971;-69
2022/06/10 10:30:20;;;;;;;27.53;2.93;;;26.90;1.00;;;;;;4988191;28;20467;-70
2022/06/10 10:32:53;;;;;;;26.20;2.70;;;26.90;1.00;;;;;;4988223;28;20480;-69
2022/06/10 10:35:24;;;;;;;30.57;3.60;;;26.50;1.00;;;;;;4987281;28;20676;-69
2022/06/10 10:37:55;;;;;;;28.20;3.67;;;26.20;1.00;;;;;;4987535;28;20467;-70
2022/06/10 10:40:30;;;;;;;28.30;2.83;;;26.20;1.70;;;;;;4988291;28;20823;-70
2022/06/10 10:43:00;;;;;;;27.87;2.80;;;26.30;1.50;;;;;;4988148;28;20988;-70
2022/06/10 10:45:32;;;;;;;27.70;3.47;;;26.20;1.80;;;;;;4987888;28;20453;-70
2022/06/10 10:48:03;;;;;;;28.07;3.03;;;26.00;2.10;;;;;;4987912;28;20476;-70
2022/06/10 10:50:33;;;;;;;26.50;3.30;;;25.80;2.70;;;;;;4988352;28;20448;-70
2022/06/10 10:53:05;;;;;;;26.87;3.30;;;25.80;4.30;;;;;;4988481;28;20487;-69
2022/06/10 10:55:36;;;;;;;27.50;3.00;;;25.90;3.70;;;;;;4987983;28;21180;-69
2022/06/10 10:58:08;;;;;;;25.70;2.93;;;25.90;3.40;;;;;;4987293;28;20467;-69
2022/06/10 11:00:40;;;;;;;26.83;3.20;;;25.70;4.00;;;;;;4987355;28;20527;-69
2022/06/10 11:03:07;;;;;;;26.67;2.77;;;25.70;4.20;;;;;;4988287;28;20575;-69
2022/06/10 11:05:36;;;;;;;25.67;2.53;;;25.60;4.30;;;;;;4988782;28;20761;-69
2022/06/10 11:08:16;;;;;;;25.17;2.63;;;25.60;4.90;;;;;;4987707;28;20896;-69
2022/06/10 11:10:53;;;;;;;27.53;3.20;;;25.50;5.10;;;;;;4988022;28;20836;-70
2022/06/10 11:13:29;;;;;;;27.47;3.10;;;25.50;4.90;;;;;;4987676;28;20482;-70
2022/06/10 11:16:17;;;;;;;29.63;3.10;;;25.50;4.60;;;;;;4988202;28;20468;-70
2022/06/10 11:18:47;;;;;;;28.70;3.10;;;25.50;5.00;;;;;;4987106;28;20832;-70
2022/06/10 11:21:14;;;;;;;28.00;2.50;;;25.60;5.10;;;;;;4987383;28;20528;-70
2022/06/10 11:23:52;;;;;;;29.30;3.43;;;25.60;4.40;;;;;;4983248;28;20492;-70
2022/06/10 11:26:21;;;;;;;26.70;3.03;;;25.70;4.40;;;;;;4988292;28;20445;-70
2022/06/10 11:28:50;;;;;;;25.90;2.87;;;25.90;4.50;;;;;;4987420;28;20464;-70
2022/06/10 11:31:21;;;;;;;26.43;3.10;;;26.20;5.00;;;;;;4986904;28;20476;-70
2022/06/10 11:33:51;;;;;;;27.20;2.90;;;26.60;3.80;;;;;;4988276;28;20490;-70
2022/06/10 11:36:24;;;;;;;27.83;2.93;;;26.70;1.80;;;;;;4987134;28;20523;-70
2022/06/10 11:38:53;;;;;;;28.93;3.57;;;26.60;2.50;;;;;;4986684;28;20794;-70
2022/06/10 11:41:30;;;;;;;27.73;3.80;;;26.30;2.70;;;;;;4986396;28;20938;-70
2022/06/10 11:44:04;;;;;;;29.23;3.27;;;25.90;2.70;;;;;;4984068;28;20483;-70
2022/06/10 11:46:39;;;;;;;26.90;2.73;;;25.60;3.10;;;;;;4989609;28;20862;-70
2022/06/10 11:49:15;;;;;;;28.50;3.80;;;25.30;3.70;;;;;;4990462;28;20479;-70
2022/06/10 11:51:46;;;;;;;29.03;3.53;;;25.00;3.00;;;;;;4990545;28;20452;-70
2022/06/10 11:54:26;;;;;;;26.73;3.20;;;24.80;4.30;;;;;;4991636;28;20477;-70
2022/06/10 11:59:52;;;;;;;26.87;2.97;;;24.10;5.40;;;;;;4989880;28;20460;-70
2022/06/10 12:02:30;;;;;;;27.40;3.10;;;23.90;5.60;;;;;;4971221;28;20475;-70
2022/06/10 12:05:06;;;;;;;28.03;2.40;;;23.90;4.90;;;;;;4971306;28;20456;-70
2022/06/10 12:07:38;;;;;;;27.37;2.70;;;23.80;4.00;;;;;;4983532;28;20451;-70
2022/06/10 12:10:08;;;;;;;27.47;2.97;;;23.80;4.30;;;;;;4987277;28;20476;-70
2022/06/10 12:12:41;;;;;;;28.90;3.13;;;23.90;4.80;;;;;;4985907;28;20488;-70
2022/06/10 12:15:20;;;;;;;26.97;2.83;;;24.00;4.20;;;;;;4989924;28;20467;-70
2022/06/10 12:17:51;;;;;;;27.70;2.80;;;24.00;4.30;;;;;;4991529;28;20474;-70
2022/06/10 12:20:25;;;;;;;26.43;3.47;;;24.00;4.60;;;;;;4990231;28;20469;-70
2022/06/10 12:22:52;;;;;;;28.13;2.80;;;24.00;4.40;;;;;;4983384;28;20480;-70
2022/06/10 12:25:23;;;;;;;27.60;3.03;;;24.10;4.40;;;;;;4988757;28;20464;-69
2022/06/10 12:27:56;;;;;;;29.70;3.50;;;24.10;4.00;;;;;;4986889;28;21166;-68
2022/06/10 12:30:28;;;;;;;27.10;3.07;;;24.20;4.90;;;;;;4988981;28;20437;-69
2022/06/10 12:33:04;;;;;;;29.00;2.60;;;24.40;5.60;;;;;;4986816;28;20485;-70
2022/06/10 12:35:35;;;;;;;27.37;3.37;;;24.50;3.80;;;;;;4987745;28;20490;-70
2022/06/10 12:38:10;;;;;;;30.60;2.70;;;24.60;4.50;;;;;;4990888;28;20919;-70
2022/06/10 12:40:44;;;;;;;29.63;5.27;;;24.50;2.90;;;;;;4990880;28;20441;-70
2022/06/10 12:43:17;;;;;;;28.60;2.77;;;24.70;2.90;;;;;;4989528;28;21308;-70
2022/06/10 12:45:47;;;;;;;28.27;2.60;;;24.80;2.60;;;;;;4991213;28;20445;-70
2022/06/10 12:48:20;;;;;;;28.17;2.73;;;24.90;2.90;;;;;;4990716;28;20456;-70
2022/06/10 12:50:53;;;;;;;26.80;2.80;;;24.90;2.80;;;;;;4991013;28;20449;-70
2022/06/10 12:53:34;;;;;;;28.60;3.47;;;24.80;3.00;;;;;;4989620;28;20570;-70
2022/06/10 12:56:16;;;;;;;28.00;2.57;;;24.60;2.80;;;;;;4990655;28;20870;-70
2022/06/10 12:58:49;;;;;;;26.37;3.17;;;24.70;3.60;;;;;;4990049;28;20861;-70
2022/06/10 13:01:21;;;;;;;27.43;3.03;;;24.70;4.10;;;;;;4989796;28;20519;-70
2022/06/10 13:03:52;;;;;;;26.87;2.97;;;24.90;3.80;;;;;;4989000;28;20485;-70
2022/06/10 13:06:56;;;;;;;28.00;3.30;;;24.80;3.30;;;;;;4989799;28;20545;-70
2022/06/10 13:09:33;;;;;;;27.27;2.90;;;24.80;3.70;;;;;;4986373;28;20624;-70
2022/06/10 13:12:22;;;;;;;28.00;3.50;;;24.80;4.10;;;;;;4989811;28;20988;-70
2022/06/10 13:15:13;;;;;;;26.70;2.80;;;24.70;4.70;;;;;;4970326;28;20461;-70
2022/06/10 13:17:56;;;;;;;25.87;2.47;;;24.80;4.40;;;;;;4971239;28;20475;-70
2022/06/10 13:20:28;;;;;;;28.37;2.93;;;24.90;4.40;;;;;;4970043;28;20449;-70
2022/06/10 13:23:25;;;;;;;28.27;3.40;;;25.00;5.00;;;;;;4973841;28;20488;-70